sensor_id;sensor_type;location;lat;lon;timestamp;P1;durP1;ratioP1;P2;durP2;ratioP2
67041;SDS011;53949;47.790;18.750;2023-06-26T00:00:22;6.25;;;5.32;;
67041;SDS011;53949;47.790;18.750;2023-06-26T00:03:26;6.28;;;5.50;;
67041;SDS011;53949;47.790;18.750;2023-06-26T00:06:29;9.52;;;5.53;;
67041;SDS011;53949;47.790;18.750;2023-06-26T00:12:37;7.18;;;5.30;;
67041;SDS011;53949;47.790;18.750;2023-06-26T00:15:40;8.10;;;6.00;;
67041;SDS011;53949;47.790;18.750;2023-06-26T00:18:44;5.72;;;5.18;;
67041;SDS011;53949;47.790;18.750;2023-06-26T00:21:47;6.50;;;5.18;;
67041;SDS011;53949;47.790;18.750;2023-06-26T00:24:50;7.30;;;5.35;;
67041;SDS011;53949;47.790;18.750;2023-06-26T00:27:53;7.47;;;5.45;;
67041;SDS011;53949;47.790;18.750;2023-06-26T00:30:56;7.50;;;5.70;;
67041;SDS011;53949;47.790;18.750;2023-06-26T00:34:00;6.18;;;5.12;;
67041;SDS011;53949;47.790;18.750;2023-06-26T00:37:04;9.23;;;5.80;;
67041;SDS011;53949;47.790;18.750;2023-06-26T00:40:08;6.07;;;5.07;;
67041;SDS011;53949;47.790;18.750;2023-06-26T00:43:11;6.60;;;4.87;;
67041;SDS011;53949;47.790;18.750;2023-06-26T00:49:19;6.12;;;4.93;;
67041;SDS011;53949;47.790;18.750;2023-06-26T00:52:23;7.68;;;5.43;;
67041;SDS011;53949;47.790;18.750;2023-06-26T00:55:27;7.00;;;5.00;;
67041;SDS011;53949;47.790;18.750;2023-06-26T00:58:31;6.62;;;5.15;;
67041;SDS011;53949;47.790;18.750;2023-06-26T01:01:34;5.95;;;5.15;;
67041;SDS011;53949;47.790;18.750;2023-06-26T01:04:38;6.05;;;4.90;;
67041;SDS011;53949;47.790;18.750;2023-06-26T01:07:49;8.70;;;5.40;;
67041;SDS011;53949;47.790;18.750;2023-06-26T01:10:54;7.03;;;5.10;;
67041;SDS011;53949;47.790;18.750;2023-06-26T01:13:59;7.87;;;5.82;;
67041;SDS011;53949;47.790;18.750;2023-06-26T01:17:03;6.33;;;5.17;;
67041;SDS011;53949;47.790;18.750;2023-06-26T01:20:06;6.65;;;5.65;;
67041;SDS011;53949;47.790;18.750;2023-06-26T01:23:30;6.40;;;4.93;;
67041;SDS011;53949;47.790;18.750;2023-06-26T01:26:39;5.78;;;4.85;;
67041;SDS011;53949;47.790;18.750;2023-06-26T01:29:43;9.07;;;5.37;;
67041;SDS011;53949;47.790;18.750;2023-06-26T01:32:47;7.62;;;5.62;;
67041;SDS011;53949;47.790;18.750;2023-06-26T01:35:51;10.70;;;5.60;;
67041;SDS011;53949;47.790;18.750;2023-06-26T01:38:54;10.68;;;5.78;;
67041;SDS011;53949;47.790;18.750;2023-06-26T01:41:58;8.70;;;6.50;;
67041;SDS011;53949;47.790;18.750;2023-06-26T01:45:03;6.18;;;5.35;;
67041;SDS011;53949;47.790;18.750;2023-06-26T01:48:11;12.05;;;5.55;;
67041;SDS011;53949;47.790;18.750;2023-06-26T01:51:16;10.38;;;5.95;;
67041;SDS011;53949;47.790;18.750;2023-06-26T01:54:20;8.15;;;5.35;;
67041;SDS011;53949;47.790;18.750;2023-06-26T01:57:26;6.72;;;5.70;;
67041;SDS011;53949;47.790;18.750;2023-06-26T02:00:31;12.95;;;5.37;;
67041;SDS011;53949;47.790;18.750;2023-06-26T02:03:34;8.77;;;5.00;;
67041;SDS011;53949;47.790;18.750;2023-06-26T02:06:37;6.55;;;5.25;;
67041;SDS011;53949;47.790;18.750;2023-06-26T02:09:42;5.28;;;4.53;;
67041;SDS011;53949;47.790;18.750;2023-06-26T02:12:46;6.93;;;5.47;;
67041;SDS011;53949;47.790;18.750;2023-06-26T02:15:49;7.62;;;5.25;;
67041;SDS011;53949;47.790;18.750;2023-06-26T02:18:53;7.95;;;5.37;;
67041;SDS011;53949;47.790;18.750;2023-06-26T02:21:58;6.35;;;4.97;;
67041;SDS011;53949;47.790;18.750;2023-06-26T02:25:01;10.20;;;5.55;;
67041;SDS011;53949;47.790;18.750;2023-06-26T02:28:04;9.25;;;4.72;;
67041;SDS011;53949;47.790;18.750;2023-06-26T02:31:07;8.18;;;5.18;;
67041;SDS011;53949;47.790;18.750;2023-06-26T02:34:09;11.93;;;5.50;;
67041;SDS011;53949;47.790;18.750;2023-06-26T02:37:13;7.75;;;5.35;;
67041;SDS011;53949;47.790;18.750;2023-06-26T02:40:16;7.10;;;5.07;;
67041;SDS011;53949;47.790;18.750;2023-06-26T02:43:19;9.27;;;5.70;;
67041;SDS011;53949;47.790;18.750;2023-06-26T02:46:22;7.87;;;4.97;;
67041;SDS011;53949;47.790;18.750;2023-06-26T02:49:27;7.05;;;5.22;;
67041;SDS011;53949;47.790;18.750;2023-06-26T02:52:30;6.00;;;5.40;;
67041;SDS011;53949;47.790;18.750;2023-06-26T02:55:34;7.50;;;5.55;;
67041;SDS011;53949;47.790;18.750;2023-06-26T02:58:37;6.35;;;4.65;;
67041;SDS011;53949;47.790;18.750;2023-06-26T03:01:41;19.00;;;6.25;;
67041;SDS011;53949;47.790;18.750;2023-06-26T03:04:44;11.32;;;6.05;;
67041;SDS011;53949;47.790;18.750;2023-06-26T03:07:48;5.50;;;4.50;;
67041;SDS011;53949;47.790;18.750;2023-06-26T03:10:51;7.75;;;4.93;;
67041;SDS011;53949;47.790;18.750;2023-06-26T03:13:54;6.47;;;5.30;;
67041;SDS011;53949;47.790;18.750;2023-06-26T03:16:57;6.47;;;4.95;;
67041;SDS011;53949;47.790;18.750;2023-06-26T03:23:09;7.95;;;4.97;;
67041;SDS011;53949;47.790;18.750;2023-06-26T03:29:17;8.35;;;5.47;;
67041;SDS011;53949;47.790;18.750;2023-06-26T03:32:20;7.25;;;4.85;;
67041;SDS011;53949;47.790;18.750;2023-06-26T03:35:24;6.72;;;4.72;;
67041;SDS011;53949;47.790;18.750;2023-06-26T03:38:27;6.70;;;4.97;;
67041;SDS011;53949;47.790;18.750;2023-06-26T03:41:32;6.85;;;4.62;;
67041;SDS011;53949;47.790;18.750;2023-06-26T03:44:35;7.53;;;5.60;;
67041;SDS011;53949;47.790;18.750;2023-06-26T03:47:40;7.07;;;5.20;;
67041;SDS011;53949;47.790;18.750;2023-06-26T03:50:44;6.57;;;5.07;;
67041;SDS011;53949;47.790;18.750;2023-06-26T03:53:48;6.97;;;5.25;;
67041;SDS011;53949;47.790;18.750;2023-06-26T03:56:51;6.20;;;5.12;;
67041;SDS011;53949;47.790;18.750;2023-06-26T03:59:56;7.70;;;5.28;;
67041;SDS011;53949;47.790;18.750;2023-06-26T04:02:59;7.55;;;4.68;;
67041;SDS011;53949;47.790;18.750;2023-06-26T04:06:05;6.60;;;4.43;;
67041;SDS011;53949;47.790;18.750;2023-06-26T04:09:08;9.40;;;5.35;;
67041;SDS011;53949;47.790;18.750;2023-06-26T04:12:12;8.45;;;5.15;;
67041;SDS011;53949;47.790;18.750;2023-06-26T04:15:15;8.40;;;4.93;;
67041;SDS011;53949;47.790;18.750;2023-06-26T04:18:18;8.52;;;5.03;;
67041;SDS011;53949;47.790;18.750;2023-06-26T04:21:23;6.95;;;5.37;;
67041;SDS011;53949;47.790;18.750;2023-06-26T04:24:28;7.80;;;5.28;;
67041;SDS011;53949;47.790;18.750;2023-06-26T04:27:32;8.20;;;5.40;;
67041;SDS011;53949;47.790;18.750;2023-06-26T04:30:38;6.97;;;5.12;;
67041;SDS011;53949;47.790;18.750;2023-06-26T04:33:41;6.43;;;4.70;;
67041;SDS011;53949;47.790;18.750;2023-06-26T04:36:45;6.80;;;5.43;;
67041;SDS011;53949;47.790;18.750;2023-06-26T04:39:50;6.70;;;5.20;;
67041;SDS011;53949;47.790;18.750;2023-06-26T04:42:54;6.70;;;5.35;;
67041;SDS011;53949;47.790;18.750;2023-06-26T04:45:57;11.50;;;5.57;;
67041;SDS011;53949;47.790;18.750;2023-06-26T04:49:01;8.15;;;4.95;;
67041;SDS011;53949;47.790;18.750;2023-06-26T04:52:06;6.78;;;5.22;;
67041;SDS011;53949;47.790;18.750;2023-06-26T04:55:10;9.32;;;5.93;;
67041;SDS011;53949;47.790;18.750;2023-06-26T04:58:13;12.60;;;6.32;;
67041;SDS011;53949;47.790;18.750;2023-06-26T05:04:20;8.35;;;6.20;;
67041;SDS011;53949;47.790;18.750;2023-06-26T05:07:24;8.18;;;6.10;;
67041;SDS011;53949;47.790;18.750;2023-06-26T05:10:27;9.20;;;5.85;;
67041;SDS011;53949;47.790;18.750;2023-06-26T05:13:30;8.25;;;6.00;;
67041;SDS011;53949;47.790;18.750;2023-06-26T05:16:33;13.10;;;6.50;;
67041;SDS011;53949;47.790;18.750;2023-06-26T05:19:37;11.13;;;5.97;;
67041;SDS011;53949;47.790;18.750;2023-06-26T05:22:40;9.20;;;6.80;;
67041;SDS011;53949;47.790;18.750;2023-06-26T05:25:43;9.88;;;6.78;;
67041;SDS011;53949;47.790;18.750;2023-06-26T05:28:47;9.55;;;6.10;;
67041;SDS011;53949;47.790;18.750;2023-06-26T05:31:51;9.80;;;6.55;;
67041;SDS011;53949;47.790;18.750;2023-06-26T05:38:01;10.82;;;6.78;;
67041;SDS011;53949;47.790;18.750;2023-06-26T05:41:05;9.18;;;6.60;;
67041;SDS011;53949;47.790;18.750;2023-06-26T05:44:09;7.97;;;6.50;;
67041;SDS011;53949;47.790;18.750;2023-06-26T05:47:11;9.60;;;6.47;;
67041;SDS011;53949;47.790;18.750;2023-06-26T05:50:16;9.43;;;5.80;;
67041;SDS011;53949;47.790;18.750;2023-06-26T05:53:20;7.55;;;5.72;;
67041;SDS011;53949;47.790;18.750;2023-06-26T05:56:23;7.12;;;5.45;;
67041;SDS011;53949;47.790;18.750;2023-06-26T05:59:27;7.97;;;6.00;;
67041;SDS011;53949;47.790;18.750;2023-06-26T06:02:30;7.87;;;5.20;;
67041;SDS011;53949;47.790;18.750;2023-06-26T06:05:34;6.85;;;5.22;;
67041;SDS011;53949;47.790;18.750;2023-06-26T06:08:37;7.55;;;5.85;;
67041;SDS011;53949;47.790;18.750;2023-06-26T06:11:41;8.48;;;5.55;;
67041;SDS011;53949;47.790;18.750;2023-06-26T06:14:44;9.63;;;5.93;;
67041;SDS011;53949;47.790;18.750;2023-06-26T06:17:47;8.63;;;6.05;;
67041;SDS011;53949;47.790;18.750;2023-06-26T06:20:50;8.50;;;5.80;;
67041;SDS011;53949;47.790;18.750;2023-06-26T06:26:58;8.93;;;5.93;;
67041;SDS011;53949;47.790;18.750;2023-06-26T06:30:02;8.63;;;5.75;;
67041;SDS011;53949;47.790;18.750;2023-06-26T06:33:08;7.37;;;5.87;;
67041;SDS011;53949;47.790;18.750;2023-06-26T06:36:11;11.15;;;6.10;;
67041;SDS011;53949;47.790;18.750;2023-06-26T06:39:14;10.60;;;5.50;;
67041;SDS011;53949;47.790;18.750;2023-06-26T06:42:17;10.10;;;6.05;;
67041;SDS011;53949;47.790;18.750;2023-06-26T06:45:20;10.35;;;6.05;;
67041;SDS011;53949;47.790;18.750;2023-06-26T06:48:23;7.12;;;5.62;;
67041;SDS011;53949;47.790;18.750;2023-06-26T06:51:27;8.05;;;5.57;;
67041;SDS011;53949;47.790;18.750;2023-06-26T06:54:30;10.32;;;5.37;;
67041;SDS011;53949;47.790;18.750;2023-06-26T06:57:33;6.65;;;5.07;;
67041;SDS011;53949;47.790;18.750;2023-06-26T07:00:40;7.22;;;5.10;;
67041;SDS011;53949;47.790;18.750;2023-06-26T07:03:43;6.85;;;4.93;;
67041;SDS011;53949;47.790;18.750;2023-06-26T07:06:46;8.80;;;5.65;;
67041;SDS011;53949;47.790;18.750;2023-06-26T07:09:49;7.25;;;4.97;;
67041;SDS011;53949;47.790;18.750;2023-06-26T07:15:58;8.23;;;4.95;;
67041;SDS011;53949;47.790;18.750;2023-06-26T07:19:01;7.37;;;4.78;;
67041;SDS011;53949;47.790;18.750;2023-06-26T07:22:04;7.68;;;5.05;;
67041;SDS011;53949;47.790;18.750;2023-06-26T07:25:09;6.78;;;4.80;;
67041;SDS011;53949;47.790;18.750;2023-06-26T07:28:12;8.02;;;4.85;;
67041;SDS011;53949;47.790;18.750;2023-06-26T07:31:15;11.20;;;4.93;;
67041;SDS011;53949;47.790;18.750;2023-06-26T07:34:19;6.77;;;5.00;;
67041;SDS011;53949;47.790;18.750;2023-06-26T07:37:22;8.50;;;4.95;;
67041;SDS011;53949;47.790;18.750;2023-06-26T07:40:31;7.40;;;4.78;;
67041;SDS011;53949;47.790;18.750;2023-06-26T07:43:38;6.03;;;4.60;;
67041;SDS011;53949;47.790;18.750;2023-06-26T07:46:41;6.43;;;4.75;;
67041;SDS011;53949;47.790;18.750;2023-06-26T07:49:45;6.45;;;4.80;;
67041;SDS011;53949;47.790;18.750;2023-06-26T07:52:48;7.37;;;4.40;;
67041;SDS011;53949;47.790;18.750;2023-06-26T07:55:51;7.20;;;4.30;;
67041;SDS011;53949;47.790;18.750;2023-06-26T07:58:54;6.70;;;4.43;;
67041;SDS011;53949;47.790;18.750;2023-06-26T08:02:01;7.20;;;4.57;;
67041;SDS011;53949;47.790;18.750;2023-06-26T08:05:06;6.32;;;4.60;;
67041;SDS011;53949;47.790;18.750;2023-06-26T08:11:15;5.57;;;4.28;;
67041;SDS011;53949;47.790;18.750;2023-06-26T08:14:20;4.95;;;4.10;;
67041;SDS011;53949;47.790;18.750;2023-06-26T08:17:24;5.53;;;4.37;;
67041;SDS011;53949;47.790;18.750;2023-06-26T08:20:34;5.87;;;4.12;;
67041;SDS011;53949;47.790;18.750;2023-06-26T08:23:40;5.93;;;4.32;;
67041;SDS011;53949;47.790;18.750;2023-06-26T08:26:45;5.25;;;4.45;;
67041;SDS011;53949;47.790;18.750;2023-06-26T08:29:51;4.28;;;3.75;;
67041;SDS011;53949;47.790;18.750;2023-06-26T08:32:55;4.28;;;3.67;;
67041;SDS011;53949;47.790;18.750;2023-06-26T08:36:00;6.80;;;4.50;;
67041;SDS011;53949;47.790;18.750;2023-06-26T08:39:03;4.78;;;3.75;;
67041;SDS011;53949;47.790;18.750;2023-06-26T08:42:08;5.75;;;3.75;;
67041;SDS011;53949;47.790;18.750;2023-06-26T08:45:11;7.22;;;3.92;;
67041;SDS011;53949;47.790;18.750;2023-06-26T08:48:15;5.47;;;3.90;;
67041;SDS011;53949;47.790;18.750;2023-06-26T08:51:18;5.55;;;4.05;;
67041;SDS011;53949;47.790;18.750;2023-06-26T08:54:26;4.10;;;3.70;;
67041;SDS011;53949;47.790;18.750;2023-06-26T08:57:31;6.55;;;3.37;;
67041;SDS011;53949;47.790;18.750;2023-06-26T09:00:35;4.70;;;3.90;;
67041;SDS011;53949;47.790;18.750;2023-06-26T09:03:38;5.37;;;4.00;;
67041;SDS011;53949;47.790;18.750;2023-06-26T09:06:44;5.75;;;3.75;;
67041;SDS011;53949;47.790;18.750;2023-06-26T09:09:47;5.55;;;4.05;;
67041;SDS011;53949;47.790;18.750;2023-06-26T09:12:50;3.97;;;3.58;;
67041;SDS011;53949;47.790;18.750;2023-06-26T09:15:58;5.97;;;3.70;;
67041;SDS011;53949;47.790;18.750;2023-06-26T09:19:02;5.28;;;3.80;;
67041;SDS011;53949;47.790;18.750;2023-06-26T09:22:10;4.60;;;3.70;;
67041;SDS011;53949;47.790;18.750;2023-06-26T09:25:17;4.85;;;3.60;;
67041;SDS011;53949;47.790;18.750;2023-06-26T09:28:20;4.10;;;3.47;;
67041;SDS011;53949;47.790;18.750;2023-06-26T09:31:24;4.15;;;3.33;;
67041;SDS011;53949;47.790;18.750;2023-06-26T09:34:43;4.75;;;3.67;;
67041;SDS011;53949;47.790;18.750;2023-06-26T09:37:47;4.53;;;3.37;;
67041;SDS011;53949;47.790;18.750;2023-06-26T09:40:51;3.53;;;3.10;;
67041;SDS011;53949;47.790;18.750;2023-06-26T09:43:54;4.35;;;3.45;;
67041;SDS011;53949;47.790;18.750;2023-06-26T09:47:04;3.97;;;3.03;;
67041;SDS011;53949;47.790;18.750;2023-06-26T09:50:20;5.80;;;3.35;;
67041;SDS011;53949;47.790;18.750;2023-06-26T09:53:25;8.32;;;3.17;;
67041;SDS011;53949;47.790;18.750;2023-06-26T09:56:29;6.43;;;3.55;;
67041;SDS011;53949;47.790;18.750;2023-06-26T09:59:32;4.12;;;3.65;;
67041;SDS011;53949;47.790;18.750;2023-06-26T10:02:36;6.22;;;3.47;;
67041;SDS011;53949;47.790;18.750;2023-06-26T10:05:40;4.13;;;3.67;;
67041;SDS011;53949;47.790;18.750;2023-06-26T10:08:43;3.60;;;3.27;;
67041;SDS011;53949;47.790;18.750;2023-06-26T10:11:49;3.53;;;3.12;;
67041;SDS011;53949;47.790;18.750;2023-06-26T10:14:52;3.95;;;3.47;;
67041;SDS011;53949;47.790;18.750;2023-06-26T10:17:56;6.37;;;3.83;;
67041;SDS011;53949;47.790;18.750;2023-06-26T10:24:03;4.25;;;3.40;;
67041;SDS011;53949;47.790;18.750;2023-06-26T10:27:09;3.40;;;3.10;;
67041;SDS011;53949;47.790;18.750;2023-06-26T10:30:17;3.75;;;3.03;;
67041;SDS011;53949;47.790;18.750;2023-06-26T10:33:22;4.45;;;4.05;;
67041;SDS011;53949;47.790;18.750;2023-06-26T10:39:46;4.73;;;3.47;;
67041;SDS011;53949;47.790;18.750;2023-06-26T10:43:05;5.12;;;3.30;;
67041;SDS011;53949;47.790;18.750;2023-06-26T10:46:10;3.20;;;2.90;;
67041;SDS011;53949;47.790;18.750;2023-06-26T10:49:13;4.10;;;3.42;;
67041;SDS011;53949;47.790;18.750;2023-06-26T10:52:16;3.60;;;3.30;;
67041;SDS011;53949;47.790;18.750;2023-06-26T10:55:27;4.45;;;4.00;;
67041;SDS011;53949;47.790;18.750;2023-06-26T11:01:43;5.00;;;3.58;;
67041;SDS011;53949;47.790;18.750;2023-06-26T11:04:47;3.87;;;3.47;;
67041;SDS011;53949;47.790;18.750;2023-06-26T11:08:02;4.28;;;3.05;;
67041;SDS011;53949;47.790;18.750;2023-06-26T11:14:10;3.60;;;3.17;;
67041;SDS011;53949;47.790;18.750;2023-06-26T11:17:13;3.40;;;3.08;;
67041;SDS011;53949;47.790;18.750;2023-06-26T11:20:19;4.10;;;2.70;;
67041;SDS011;53949;47.790;18.750;2023-06-26T11:23:22;2.95;;;2.60;;
67041;SDS011;53949;47.790;18.750;2023-06-26T11:26:29;3.70;;;2.72;;
67041;SDS011;53949;47.790;18.750;2023-06-26T11:29:32;2.85;;;2.55;;
67041;SDS011;53949;47.790;18.750;2023-06-26T11:32:39;3.30;;;2.70;;
67041;SDS011;53949;47.790;18.750;2023-06-26T11:35:42;3.08;;;2.78;;
67041;SDS011;53949;47.790;18.750;2023-06-26T11:38:46;5.55;;;2.90;;
67041;SDS011;53949;47.790;18.750;2023-06-26T11:41:48;2.78;;;2.58;;
67041;SDS011;53949;47.790;18.750;2023-06-26T11:44:52;3.53;;;2.47;;
67041;SDS011;53949;47.790;18.750;2023-06-26T11:47:56;2.83;;;2.25;;
67041;SDS011;53949;47.790;18.750;2023-06-26T11:51:03;3.00;;;2.70;;
67041;SDS011;53949;47.790;18.750;2023-06-26T11:54:07;2.60;;;2.40;;
67041;SDS011;53949;47.790;18.750;2023-06-26T11:57:15;2.95;;;2.65;;
67041;SDS011;53949;47.790;18.750;2023-06-26T12:00:20;4.05;;;3.10;;
67041;SDS011;53949;47.790;18.750;2023-06-26T12:03:24;2.20;;;2.00;;
67041;SDS011;53949;47.790;18.750;2023-06-26T12:06:28;2.40;;;2.17;;
67041;SDS011;53949;47.790;18.750;2023-06-26T12:09:32;2.47;;;2.28;;
67041;SDS011;53949;47.790;18.750;2023-06-26T12:12:36;3.22;;;2.30;;
67041;SDS011;53949;47.790;18.750;2023-06-26T12:15:39;2.50;;;2.22;;
67041;SDS011;53949;47.790;18.750;2023-06-26T12:18:43;2.50;;;2.37;;
67041;SDS011;53949;47.790;18.750;2023-06-26T12:21:47;2.87;;;2.60;;
67041;SDS011;53949;47.790;18.750;2023-06-26T12:24:51;2.37;;;2.17;;
67041;SDS011;53949;47.790;18.750;2023-06-26T12:27:54;3.05;;;2.58;;
67041;SDS011;53949;47.790;18.750;2023-06-26T12:31:15;3.42;;;2.70;;
67041;SDS011;53949;47.790;18.750;2023-06-26T12:34:20;2.72;;;2.53;;
67041;SDS011;53949;47.790;18.750;2023-06-26T12:37:26;2.83;;;2.60;;
67041;SDS011;53949;47.790;18.750;2023-06-26T12:43:33;2.53;;;2.30;;
67041;SDS011;53949;47.790;18.750;2023-06-26T12:46:41;3.33;;;2.03;;
67041;SDS011;53949;47.790;18.750;2023-06-26T12:49:44;2.87;;;2.58;;
67041;SDS011;53949;47.790;18.750;2023-06-26T12:52:49;2.80;;;2.60;;
67041;SDS011;53949;47.790;18.750;2023-06-26T12:55:55;2.70;;;2.50;;
67041;SDS011;53949;47.790;18.750;2023-06-26T12:59:00;4.03;;;2.60;;
67041;SDS011;53949;47.790;18.750;2023-06-26T13:02:04;2.35;;;2.15;;
67041;SDS011;53949;47.790;18.750;2023-06-26T13:05:09;2.60;;;2.40;;
67041;SDS011;53949;47.790;18.750;2023-06-26T13:08:14;2.85;;;2.55;;
67041;SDS011;53949;47.790;18.750;2023-06-26T13:11:20;4.03;;;2.95;;
67041;SDS011;53949;47.790;18.750;2023-06-26T13:14:24;4.15;;;2.40;;
67041;SDS011;53949;47.790;18.750;2023-06-26T13:17:30;3.03;;;2.72;;
67041;SDS011;53949;47.790;18.750;2023-06-26T13:20:33;2.67;;;2.28;;
67041;SDS011;53949;47.790;18.750;2023-06-26T13:23:36;2.85;;;2.58;;
67041;SDS011;53949;47.790;18.750;2023-06-26T13:29:43;2.97;;;2.73;;
67041;SDS011;53949;47.790;18.750;2023-06-26T13:32:46;4.07;;;2.45;;
67041;SDS011;53949;47.790;18.750;2023-06-26T13:35:49;3.05;;;2.65;;
67041;SDS011;53949;47.790;18.750;2023-06-26T13:38:52;2.78;;;2.58;;
67041;SDS011;53949;47.790;18.750;2023-06-26T13:41:59;2.95;;;2.30;;
67041;SDS011;53949;47.790;18.750;2023-06-26T13:45:03;2.80;;;2.60;;
67041;SDS011;53949;47.790;18.750;2023-06-26T13:48:07;2.42;;;2.22;;
67041;SDS011;53949;47.790;18.750;2023-06-26T13:51:11;3.28;;;2.67;;
67041;SDS011;53949;47.790;18.750;2023-06-26T13:54:14;3.00;;;2.70;;
67041;SDS011;53949;47.790;18.750;2023-06-26T13:57:17;3.08;;;2.78;;
67041;SDS011;53949;47.790;18.750;2023-06-26T14:00:22;2.72;;;2.50;;
67041;SDS011;53949;47.790;18.750;2023-06-26T14:03:26;2.70;;;2.50;;
67041;SDS011;53949;47.790;18.750;2023-06-26T14:06:31;3.33;;;3.05;;
67041;SDS011;53949;47.790;18.750;2023-06-26T14:09:36;2.80;;;2.60;;
67041;SDS011;53949;47.790;18.750;2023-06-26T14:12:39;2.80;;;2.60;;
67041;SDS011;53949;47.790;18.750;2023-06-26T14:15:44;2.92;;;2.72;;
67041;SDS011;53949;47.790;18.750;2023-06-26T14:18:48;3.53;;;2.90;;
67041;SDS011;53949;47.790;18.750;2023-06-26T14:21:53;3.90;;;2.80;;
67041;SDS011;53949;47.790;18.750;2023-06-26T14:28:01;3.25;;;2.75;;
67041;SDS011;53949;47.790;18.750;2023-06-26T14:31:05;4.70;;;3.10;;
67041;SDS011;53949;47.790;18.750;2023-06-26T14:34:08;2.80;;;2.60;;
67041;SDS011;53949;47.790;18.750;2023-06-26T14:40:14;2.97;;;2.73;;
67041;SDS011;53949;47.790;18.750;2023-06-26T14:43:18;2.70;;;2.50;;
67041;SDS011;53949;47.790;18.750;2023-06-26T14:46:22;2.83;;;2.62;;
67041;SDS011;53949;47.790;18.750;2023-06-26T14:49:25;2.85;;;2.62;;
67041;SDS011;53949;47.790;18.750;2023-06-26T14:52:29;3.00;;;2.80;;
67041;SDS011;53949;47.790;18.750;2023-06-26T14:55:32;3.30;;;3.00;;
67041;SDS011;53949;47.790;18.750;2023-06-26T14:58:35;3.17;;;2.87;;
67041;SDS011;53949;47.790;18.750;2023-06-26T15:01:38;3.87;;;3.08;;
67041;SDS011;53949;47.790;18.750;2023-06-26T15:04:42;3.22;;;2.92;;
67041;SDS011;53949;47.790;18.750;2023-06-26T15:07:45;3.15;;;2.92;;
67041;SDS011;53949;47.790;18.750;2023-06-26T15:10:48;3.08;;;2.78;;
67041;SDS011;53949;47.790;18.750;2023-06-26T15:13:51;2.75;;;2.55;;
67041;SDS011;53949;47.790;18.750;2023-06-26T15:16:55;2.97;;;2.75;;
67041;SDS011;53949;47.790;18.750;2023-06-26T15:19:58;4.28;;;2.70;;
67041;SDS011;53949;47.790;18.750;2023-06-26T15:23:02;2.80;;;2.60;;
67041;SDS011;53949;47.790;18.750;2023-06-26T15:26:05;4.18;;;2.95;;
67041;SDS011;53949;47.790;18.750;2023-06-26T15:29:09;2.67;;;2.47;;
67041;SDS011;53949;47.790;18.750;2023-06-26T15:35:15;2.83;;;2.62;;
67041;SDS011;53949;47.790;18.750;2023-06-26T15:38:18;3.03;;;2.35;;
67041;SDS011;53949;47.790;18.750;2023-06-26T15:41:23;3.15;;;2.85;;
67041;SDS011;53949;47.790;18.750;2023-06-26T15:44:26;3.20;;;2.90;;
67041;SDS011;53949;47.790;18.750;2023-06-26T15:47:30;3.00;;;2.70;;
67041;SDS011;53949;47.790;18.750;2023-06-26T15:50:35;2.80;;;2.60;;
67041;SDS011;53949;47.790;18.750;2023-06-26T15:53:38;4.57;;;3.17;;
67041;SDS011;53949;47.790;18.750;2023-06-26T15:56:41;4.55;;;2.60;;
67041;SDS011;53949;47.790;18.750;2023-06-26T15:59:46;3.80;;;2.90;;
67041;SDS011;53949;47.790;18.750;2023-06-26T16:02:49;3.05;;;2.78;;
67041;SDS011;53949;47.790;18.750;2023-06-26T16:05:52;3.45;;;3.15;;
67041;SDS011;53949;47.790;18.750;2023-06-26T16:08:56;3.20;;;2.90;;
67041;SDS011;53949;47.790;18.750;2023-06-26T16:11:59;3.35;;;3.05;;
67041;SDS011;53949;47.790;18.750;2023-06-26T16:15:02;2.85;;;2.53;;
67041;SDS011;53949;47.790;18.750;2023-06-26T16:18:06;3.45;;;3.15;;
67041;SDS011;53949;47.790;18.750;2023-06-26T16:21:09;2.97;;;2.50;;
67041;SDS011;53949;47.790;18.750;2023-06-26T16:24:12;2.70;;;2.50;;
67041;SDS011;53949;47.790;18.750;2023-06-26T16:27:16;2.58;;;2.37;;
67041;SDS011;53949;47.790;18.750;2023-06-26T16:30:19;2.80;;;2.60;;
67041;SDS011;53949;47.790;18.750;2023-06-26T16:33:24;3.12;;;2.78;;
67041;SDS011;53949;47.790;18.750;2023-06-26T16:36:29;2.97;;;2.70;;
67041;SDS011;53949;47.790;18.750;2023-06-26T16:39:32;2.90;;;2.70;;
67041;SDS011;53949;47.790;18.750;2023-06-26T16:42:36;2.92;;;2.60;;
67041;SDS011;53949;47.790;18.750;2023-06-26T16:45:38;2.50;;;2.30;;
67041;SDS011;53949;47.790;18.750;2023-06-26T16:48:43;3.75;;;2.67;;
67041;SDS011;53949;47.790;18.750;2023-06-26T16:51:46;3.17;;;2.33;;
67041;SDS011;53949;47.790;18.750;2023-06-26T16:54:50;3.20;;;2.60;;
67041;SDS011;53949;47.790;18.750;2023-06-26T17:00:56;4.78;;;3.20;;
67041;SDS011;53949;47.790;18.750;2023-06-26T17:04:00;2.40;;;2.20;;
67041;SDS011;53949;47.790;18.750;2023-06-26T17:07:03;2.92;;;2.40;;
67041;SDS011;53949;47.790;18.750;2023-06-26T17:10:07;2.53;;;2.33;;
67041;SDS011;53949;47.790;18.750;2023-06-26T17:13:10;3.10;;;2.33;;
67041;SDS011;53949;47.790;18.750;2023-06-26T17:16:14;3.28;;;2.62;;
67041;SDS011;53949;47.790;18.750;2023-06-26T17:19:18;5.25;;;2.08;;
67041;SDS011;53949;47.790;18.750;2023-06-26T17:22:22;2.80;;;2.35;;
67041;SDS011;53949;47.790;18.750;2023-06-26T17:25:27;2.12;;;2.03;;
67041;SDS011;53949;47.790;18.750;2023-06-26T17:31:34;3.33;;;2.20;;
67041;SDS011;53949;47.790;18.750;2023-06-26T17:34:39;2.10;;;1.90;;
67041;SDS011;53949;47.790;18.750;2023-06-26T17:40:46;2.30;;;2.10;;
67041;SDS011;53949;47.790;18.750;2023-06-26T17:43:50;2.05;;;1.92;;
67041;SDS011;53949;47.790;18.750;2023-06-26T17:46:53;2.92;;;2.20;;
67041;SDS011;53949;47.790;18.750;2023-06-26T17:49:57;3.58;;;2.37;;
67041;SDS011;53949;47.790;18.750;2023-06-26T17:56:05;6.80;;;2.70;;
67041;SDS011;53949;47.790;18.750;2023-06-26T17:59:09;3.15;;;2.30;;
67041;SDS011;53949;47.790;18.750;2023-06-26T18:02:12;2.58;;;2.10;;
67041;SDS011;53949;47.790;18.750;2023-06-26T18:05:16;3.15;;;2.17;;
67041;SDS011;53949;47.790;18.750;2023-06-26T18:08:20;2.62;;;2.42;;
67041;SDS011;53949;47.790;18.750;2023-06-26T18:11:24;2.58;;;2.37;;
67041;SDS011;53949;47.790;18.750;2023-06-26T18:14:28;3.47;;;2.22;;
67041;SDS011;53949;47.790;18.750;2023-06-26T18:17:32;2.62;;;2.30;;
67041;SDS011;53949;47.790;18.750;2023-06-26T18:20:36;4.25;;;2.33;;
67041;SDS011;53949;47.790;18.750;2023-06-26T18:23:39;6.03;;;1.92;;
67041;SDS011;53949;47.790;18.750;2023-06-26T18:26:42;2.42;;;2.08;;
67041;SDS011;53949;47.790;18.750;2023-06-26T18:29:46;2.92;;;2.40;;
67041;SDS011;53949;47.790;18.750;2023-06-26T18:32:49;2.78;;;2.53;;
67041;SDS011;53949;47.790;18.750;2023-06-26T18:35:53;3.10;;;2.25;;
67041;SDS011;53949;47.790;18.750;2023-06-26T18:38:57;2.65;;;2.12;;
67041;SDS011;53949;47.790;18.750;2023-06-26T18:42:01;3.83;;;2.42;;
67041;SDS011;53949;47.790;18.750;2023-06-26T18:45:06;2.50;;;2.30;;
67041;SDS011;53949;47.790;18.750;2023-06-26T18:51:13;2.58;;;2.37;;
67041;SDS011;53949;47.790;18.750;2023-06-26T18:54:16;5.03;;;2.90;;
67041;SDS011;53949;47.790;18.750;2023-06-26T18:57:19;2.58;;;2.08;;
67041;SDS011;53949;47.790;18.750;2023-06-26T19:00:23;3.30;;;2.53;;
67041;SDS011;53949;47.790;18.750;2023-06-26T19:03:27;2.42;;;2.20;;
67041;SDS011;53949;47.790;18.750;2023-06-26T19:06:32;2.40;;;2.20;;
67041;SDS011;53949;47.790;18.750;2023-06-26T19:09:35;4.97;;;2.60;;
67041;SDS011;53949;47.790;18.750;2023-06-26T19:12:38;5.00;;;2.10;;
67041;SDS011;53949;47.790;18.750;2023-06-26T19:15:42;2.87;;;2.33;;
67041;SDS011;53949;47.790;18.750;2023-06-26T19:18:46;3.03;;;2.55;;
67041;SDS011;53949;47.790;18.750;2023-06-26T19:21:49;5.28;;;2.95;;